Time;durP1;ratioP1;P1;durP2;ratioP2;P2;SDS_P1;SDS_P2;PMS_P1;PMS_P2;Temp;Humidity;BMP_temperature;BMP_pressure;BME280_temperature;BME280_humidity;BME280_pressure;Samples;Min_cycle;Max_cycle;Signal;HPM_P1;HPM_P2
2023/01/18 00:00:29;;;;;;;36.22;32.03;;;;;;;5.87;100.00;99568.00;2098088;28;20609;-61
2023/01/18 00:01:30;;;;;;;40.38;32.92;;;;;;;6.11;100.00;99605.94;2094469;28;20237;-61
2023/01/18 00:02:30;;;;;;;37.57;31.53;;;;;;;5.48;100.00;99502.09;2095505;28;20214;-62
2023/01/18 00:03:32;;;;;;;38.00;32.07;;;;;;;5.25;100.00;99478.22;2105835;28;20285;-61
2023/01/18 00:04:32;;;;;;;38.80;31.98;;;;;;;5.66;100.00;99547.22;2101676;28;20196;-62
2023/01/18 00:05:33;;;;;;;37.83;30.23;;;;;;;4.75;100.00;99409.03;2099733;28;20201;-61
2023/01/18 00:06:34;;;;;;;38.50;31.35;;;;;;;5.85;100.00;99575.91;2103650;28;20230;-61
2023/01/18 00:07:34;;;;;;;39.00;31.97;;;;;;;5.55;100.00;99532.91;2098168;28;20217;-61
2023/01/18 00:08:37;;;;;;;36.43;31.63;;;;;;;5.92;100.00;99582.03;2096584;28;20231;-61
2023/01/18 00:09:37;;;;;;;40.83;34.13;;;;;;;5.79;100.00;99577.59;2096785;28;20739;-62
2023/01/18 00:10:38;;;;;;;35.13;30.37;;;;;;;5.08;100.00;99478.59;2097371;28;20614;-62
2023/01/18 00:11:39;;;;;;;33.55;27.85;;;;;;;5.78;100.00;99598.00;2099839;28;20695;-61
2023/01/18 00:12:40;;;;;;;37.40;32.17;;;;;;;5.74;100.00;99584.34;2104601;28;20603;-61
2023/01/18 00:13:40;;;;;;;35.73;31.07;;;;;;;5.72;100.00;99580.47;2106613;28;20201;-62
2023/01/18 00:14:41;;;;;;;41.43;33.53;;;;;;;5.64;100.00;99577.09;2105125;28;20265;-61
2023/01/18 00:15:41;;;;;;;37.80;33.70;;;;;;;5.74;100.00;99586.34;2098692;28;20188;-62
2023/01/18 00:16:42;;;;;;;39.63;30.37;;;;;;;5.73;100.00;99584.75;2101477;28;20716;-62
2023/01/18 00:17:50;;;;;;;31.03;26.93;;;;;;;5.72;100.00;99581.25;2101795;28;20632;-61
2023/01/18 00:18:53;;;;;;;40.58;30.92;;;;;;;5.67;100.00;99578.22;2099001;28;20158;-61
2023/01/18 00:19:53;;;;;;;39.55;33.25;;;;;;;5.71;100.00;99578.94;2104476;28;20190;-61
2023/01/18 00:20:54;;;;;;;39.93;33.60;;;;;;;5.78;100.00;99590.56;2106759;28;20176;-61
2023/01/18 00:21:55;;;;;;;38.10;30.20;;;;;;;5.76;100.00;99581.19;2096548;28;20194;-61
2023/01/18 00:22:58;;;;;;;35.00;30.60;;;;;;;5.61;100.00;99575.22;2102659;28;20197;-61
2023/01/18 00:23:58;;;;;;;41.70;33.10;;;;;;;5.76;100.00;99601.22;2105079;28;20278;-61
2023/01/18 00:24:59;;;;;;;39.77;32.80;;;;;;;5.77;100.00;99604.72;2102863;28;20187;-61
2023/01/18 00:26:00;;;;;;;37.83;31.17;;;;;;;5.81;100.00;99643.94;2096541;28;20197;-61
2023/01/18 00:27:01;;;;;;;35.38;29.42;;;;;;;5.81;100.00;99630.97;2098221;28;20287;-61
2023/01/18 00:28:01;;;;;;;36.20;29.83;;;;;;;5.75;100.00;99616.13;2104347;28;20191;-61
2023/01/18 00:29:02;;;;;;;39.63;33.17;;;;;;;5.14;100.00;99546.31;2105120;28;20229;-61
2023/01/18 00:30:07;;;;;;;38.80;32.10;;;;;;;5.26;100.00;99567.66;2099987;28;20210;-61
2023/01/18 00:31:17;;;;;;;38.72;32.03;;;;;;;5.70;100.00;99613.13;2100143;28;20183;-62
2023/01/18 00:32:17;;;;;;;34.00;26.85;;;;;;;5.65;100.00;99602.63;2101474;28;20200;-61
2023/01/18 00:33:18;;;;;;;38.67;31.97;;;;;;;5.66;100.00;99601.41;2097919;28;20176;-61
2023/01/18 00:34:18;;;;;;;40.77;30.73;;;;;;;5.58;100.00;99594.50;2106177;28;20534;-61
2023/01/18 00:35:21;;;;;;;36.53;30.43;;;;;;;4.75;100.00;99479.59;2097271;28;20193;-62
2023/01/18 00:36:21;;;;;;;38.78;28.80;;;;;;;5.70;100.00;99624.09;2103026;28;20264;-61
2023/01/18 00:37:28;;;;;;;39.57;30.73;;;;;;;5.71;100.00;99603.66;2104194;28;20297;-61
2023/01/18 00:38:29;;;;;;;37.30;29.60;;;;;;;5.63;100.00;99591.25;2100817;28;20198;-61
2023/01/18 00:39:29;;;;;;;38.25;32.20;;;;;;;5.52;100.00;99590.69;2096931;28;20177;-61
2023/01/18 00:40:30;;;;;;;236.57;37.53;;;;;;;5.35;100.00;99589.88;2097195;28;20173;-61
2023/01/18 00:41:30;;;;;;;33.60;28.07;;;;;;;5.40;100.00;99594.88;2106408;28;20178;-61
2023/01/18 00:43:51;;;;;;;40.97;33.10;;;;;;;5.31;100.00;99583.66;2105776;28;20265;-61
2023/01/18 00:44:51;;;;;;;38.47;31.38;;;;;;;5.44;100.00;99597.53;2098489;28;20207;-61
2023/01/18 00:45:52;;;;;;;36.50;28.97;;;;;;;5.44;100.00;99603.78;2103001;28;20698;-61
2023/01/18 00:46:54;;;;;;;38.03;29.67;;;;;;;5.48;100.00;99609.25;2101257;28;20197;-62
2023/01/18 00:47:55;;;;;;;39.15;30.88;;;;;;;5.33;100.00;99588.75;2097274;28;20191;-61
2023/01/18 00:48:57;;;;;;;35.93;29.70;;;;;;;5.56;100.00;99619.66;2103469;28;20195;-61
2023/01/18 00:49:59;;;;;;;35.85;28.60;;;;;;;5.51;100.00;99611.91;2097326;28;20176;-61
2023/01/18 00:51:00;;;;;;;43.15;31.15;;;;;;;5.48;100.00;99628.47;2098375;28;20990;-61
2023/01/18 00:52:00;;;;;;;38.58;31.80;;;;;;;5.49;100.00;99625.28;2105629;28;20206;-61
2023/01/18 00:53:00;;;;;;;35.40;30.00;;;;;;;5.48;100.00;99622.97;2097738;28;20706;-61
2023/01/18 00:54:01;;;;;;;40.43;32.33;;;;;;;5.48;100.00;99612.75;2104578;28;20195;-61
2023/01/18 00:55:03;;;;;;;40.50;29.77;;;;;;;5.47;100.00;99604.91;2100258;28;20220;-61
2023/01/18 00:56:07;;;;;;;38.47;31.95;;;;;;;5.45;100.00;99601.84;2097443;28;20530;-61
2023/01/18 00:57:07;;;;;;;39.47;30.10;;;;;;;4.78;100.00;99498.75;2097250;28;20260;-61
2023/01/18 00:58:08;;;;;;;35.30;29.57;;;;;;;5.40;100.00;99600.38;2096789;28;20204;-61
2023/01/18 00:59:08;;;;;;;38.63;31.73;;;;;;;5.51;100.00;99611.13;2097683;28;20207;-61
2023/01/18 01:00:11;;;;;;;37.57;31.90;;;;;;;5.54;100.00;99605.56;2097711;28;20565;-61
2023/01/18 01:01:12;;;;;;;36.60;31.15;;;;;;;5.48;100.00;99584.50;2106208;28;20176;-61
2023/01/18 01:02:13;;;;;;;38.60;31.13;;;;;;;5.23;100.00;99545.75;2096000;28;20474;-62
2023/01/18 01:03:14;;;;;;;38.30;31.42;;;;;;;5.20;100.00;99583.09;2089753;28;20266;-61
2023/01/18 01:06:55;;;;;;;40.25;31.20;;;;;;;5.27;100.00;99599.41;2098018;28;20156;-61
2023/01/18 01:07:55;;;;;;;43.60;33.37;;;;;;;5.16;100.00;99592.56;2097241;28;20191;-61
2023/01/18 01:08:56;;;;;;;40.50;31.17;;;;;;;5.15;100.00;99618.47;2104264;28;20251;-61
2023/01/18 01:09:57;;;;;;;39.23;31.37;;;;;;;5.24;100.00;99621.47;2105670;28;20194;-61
2023/01/18 01:11:09;;;;;;;38.87;31.00;;;;;;;5.19;100.00;99605.47;2105982;28;20206;-62
2023/01/18 01:26:45;;;;;;;45.05;30.33;;;;;;;5.21;100.00;99597.56;2103828;28;20625;-61
2023/01/18 01:27:46;;;;;;;39.83;29.50;;;;;;;5.22;100.00;99588.13;2097024;28;20180;-61
2023/01/18 01:28:50;;;;;;;36.90;28.77;;;;;;;5.26;100.00;99597.09;2097641;28;20175;-61
2023/01/18 01:29:51;;;;;;;45.10;30.80;;;;;;;5.29;100.00;99597.00;2097463;28;20176;-61
2023/01/18 01:30:56;;;;;;;44.63;30.37;;;;;;;5.34;100.00;99601.25;2088443;28;20283;-61
2023/01/18 01:31:56;;;;;;;47.65;32.50;;;;;;;5.32;100.00;99589.91;2094369;28;20191;-60
2023/01/18 01:32:57;;;;;;;40.33;31.50;;;;;;;5.30;100.00;99586.81;2097177;28;20198;-61
2023/01/18 01:33:57;;;;;;;40.47;31.67;;;;;;;5.38;100.00;99596.50;2101378;28;20202;-61
2023/01/18 01:34:58;;;;;;;40.43;29.80;;;;;;;5.43;100.00;99610.50;2102447;28;20198;-61
2023/01/18 01:36:01;;;;;;;40.60;30.53;;;;;;;5.49;100.00;99619.78;2099232;28;20210;-61
2023/01/18 01:37:02;;;;;;;38.22;29.83;;;;;;;5.48;100.00;99606.50;2104386;28;20221;-61
2023/01/18 01:38:03;;;;;;;40.35;30.80;;;;;;;5.36;100.00;99601.59;2096913;28;20287;-61
2023/01/18 01:39:05;;;;;;;39.03;29.83;;;;;;;5.32;100.00;99604.44;2105993;28;20198;-61
2023/01/18 01:40:06;;;;;;;34.97;28.30;;;;;;;5.39;100.00;99629.00;2096215;28;20264;-61
2023/01/18 01:41:13;;;;;;;37.17;28.80;;;;;;;5.45;100.00;99657.56;2089936;28;20662;-61
2023/01/18 01:42:14;;;;;;;41.50;31.20;;;;;;;5.46;100.00;99622.63;2096542;28;20946;-61
2023/01/18 01:43:14;;;;;;;42.17;31.27;;;;;;;5.36;100.00;99607.09;2102413;28;20556;-61
2023/01/18 01:44:42;;;;;;;40.70;30.00;;;;;;;5.33;100.00;99614.22;2105306;28;20179;-61
2023/01/18 01:45:43;;;;;;;35.95;28.10;;;;;;;5.40;100.00;99624.31;2098648;28;20195;-61
2023/01/18 01:46:57;;;;;;;39.23;29.13;;;;;;;5.47;100.00;99616.69;2088306;28;20288;-61
2023/01/18 01:47:58;;;;;;;39.85;28.92;;;;;;;5.51;100.00;99600.94;2095922;28;20198;-61
2023/01/18 01:49:08;;;;;;;33.57;27.70;;;;;;;5.48;100.00;99588.03;2105539;28;20187;-61
2023/01/18 01:50:23;;;;;;;48.38;29.60;;;;;;;5.43;100.00;99590.50;2105041;28;20282;-61
2023/01/18 01:51:24;;;;;;;38.33;28.50;;;;;;;5.44;100.00;99598.31;2105453;28;20194;-61
2023/01/18 01:52:31;;;;;;;38.03;27.97;;;;;;;5.49;100.00;99597.81;2100034;28;20186;-61
2023/01/18 01:53:32;;;;;;;39.83;28.25;;;;;;;5.12;100.00;99534.97;2101583;28;20182;-61
2023/01/18 01:54:48;;;;;;;36.23;28.73;;;;;;;5.49;100.00;99602.53;2103435;28;20287;-61
2023/01/18 01:55:48;;;;;;;39.47;28.25;;;;;;;5.41;100.00;99588.16;2104890;28;20209;-61
2023/01/18 01:56:55;;;;;;;51.53;29.23;;;;;;;5.42;100.00;99581.47;2104318;28;20215;-62
2023/01/18 01:58:12;;;;;;;43.20;28.13;;;;;;;5.50;100.00;99593.88;2104528;28;20572;-61
2023/01/18 01:59:14;;;;;;;37.72;27.23;;;;;;;5.52;100.00;99587.94;2104658;28;20186;-61
2023/01/18 02:00:23;;;;;;;35.92;27.88;;;;;;;5.51;100.00;99592.69;2104744;28;20199;-61
2023/01/18 02:01:24;;;;;;;41.83;27.70;;;;;;;5.49;100.00;99597.06;2101558;28;20614;-61
2023/01/18 02:02:26;;;;;;;49.58;28.65;;;;;;;5.50;100.00;99615.88;2097561;28;20174;-61
2023/01/18 02:03:27;;;;;;;59.28;29.13;;;;;;;5.51;100.00;99600.94;2104849;28;20263;-61
2023/01/18 02:04:28;;;;;;;46.92;28.02;;;;;;;5.53;100.00;99595.00;2105586;28;20171;-61
2023/01/18 02:05:30;;;;;;;60.30;30.10;;;;;;;5.49;100.00;99602.53;2104950;28;20225;-61
2023/01/18 02:06:35;;;;;;;40.85;26.50;;;;;;;5.50;100.00;99604.88;2097787;28;20894;-61
2023/01/18 02:07:36;;;;;;;68.75;27.20;;;;;;;5.56;100.00;99614.19;2103423;28;20247;-61
2023/01/18 02:08:37;;;;;;;60.23;26.07;;;;;;;5.59;100.00;99615.31;2099357;28;20203;-61
2023/01/18 02:09:38;;;;;;;100.20;28.50;;;;;;;4.77;100.00;99483.47;2100824;28;20220;-61
2023/01/18 02:10:38;;;;;;;62.90;26.27;;;;;;;5.07;100.00;99542.94;2104922;28;20613;-62
2023/01/18 02:11:40;;;;;;;62.60;26.80;;;;;;;5.20;100.00;99554.84;2104028;28;20174;-61
2023/01/18 02:12:44;;;;;;;142.32;31.60;;;;;;;5.50;100.00;99587.59;2104570;28;20179;-61
2023/01/18 02:13:45;;;;;;;230.60;35.17;;;;;;;5.11;100.00;99538.13;2104938;28;20179;-61
2023/01/18 02:14:46;;;;;;;121.10;32.30;;;;;;;5.46;100.00;99586.91;2102232;28;20214;-61
2023/01/18 02:16:01;;;;;;;158.90;33.30;;;;;;;5.45;100.00;99571.59;2096801;28;20549;-61
2023/01/18 02:17:10;;;;;;;148.00;33.40;;;;;;;5.50;100.00;99571.91;2104043;28;20210;-61
2023/01/18 02:18:26;;;;;;;71.93;29.50;;;;;;;5.55;100.00;99568.63;2096666;28;20243;-61
2023/01/18 02:19:36;;;;;;;116.53;33.67;;;;;;;5.61;100.00;99575.22;2097601;28;20313;-61
2023/01/18 02:21:02;;;;;;;130.52;35.97;;;;;;;5.57;100.00;99577.25;2088317;28;20219;-61
2023/01/18 02:22:08;;;;;;;161.45;36.65;;;;;;;5.54;100.00;99580.06;2092140;28;20221;-61
2023/01/18 02:23:40;;;;;;;55.17;32.03;;;;;;;5.62;100.00;99595.19;2104605;28;20174;-61
2023/01/18 02:24:51;;;;;;;194.60;36.70;;;;;;;4.91;100.00;99480.47;2104740;28;20194;-61
2023/01/18 02:26:24;;;;;;;186.20;37.55;;;;;;;5.21;100.00;99567.38;2104665;28;20199;-61
2023/01/18 02:27:31;;;;;;;154.25;34.22;;;;;;;5.11;100.00;99568.34;2104051;28;20202;-61
2023/01/18 02:28:36;;;;;;;110.05;32.10;;;;;;;5.18;100.00;99585.47;2104806;28;20194;-61
2023/01/18 02:29:39;;;;;;;60.50;31.00;;;;;;;5.25;100.00;99603.78;2104738;28;20191;-61
2023/01/18 02:30:48;;;;;;;103.40;32.40;;;;;;;5.29;100.00;99612.75;2104653;28;20202;-61
2023/01/18 02:32:02;;;;;;;110.45;31.92;;;;;;;5.28;100.00;99598.22;2103477;28;20203;-61
2023/01/18 02:33:06;;;;;;;71.93;29.50;;;;;;;5.25;100.00;99604.56;2104878;28;20277;-61
2023/01/18 02:34:21;;;;;;;62.92;30.27;;;;;;;5.33;100.00;99605.97;2104791;28;20199;-61
2023/01/18 02:35:50;;;;;;;66.93;29.80;;;;;;;5.34;100.00;99596.53;2104872;28;20187;-61
2023/01/18 02:37:01;;;;;;;125.18;32.35;;;;;;;5.19;100.00;99581.50;2105020;28;20707;-61
2023/01/18 02:38:25;;;;;;;97.45;32.15;;;;;;;5.08;100.00;99571.94;2104885;28;20636;-61
2023/01/18 02:39:41;;;;;;;195.38;35.25;;;;;;;5.07;100.00;99567.66;2104343;28;20246;-61
2023/01/18 02:40:56;;;;;;;129.20;30.90;;;;;;;4.96;100.00;99569.78;2104848;28;20186;-61
2023/01/18 02:47:32;;;;;;;82.60;30.10;;;;;;;4.81;100.00;99563.78;2098271;28;20167;-61
2023/01/18 02:48:36;;;;;;;179.60;36.67;;;;;;;4.83;100.00;99560.63;2104589;28;20221;-61
2023/01/18 02:49:36;;;;;;;174.63;35.38;;;;;;;4.77;100.00;99548.59;2101621;28;20183;-61
2023/01/18 02:50:37;;;;;;;129.60;34.17;;;;;;;4.72;100.00;99558.06;2104976;28;20186;-61
2023/01/18 02:51:37;;;;;;;70.77;31.30;;;;;;;4.83;100.00;99569.63;2097689;28;20657;-61
2023/01/18 02:52:50;;;;;;;46.67;29.70;;;;;;;4.91;100.00;99573.03;2101771;28;20678;-61
2023/01/18 02:53:50;;;;;;;106.85;32.28;;;;;;;4.90;100.00;99572.25;2102568;28;20220;-61
2023/01/18 02:54:51;;;;;;;119.33;32.37;;;;;;;4.87;100.00;99572.31;2099677;28;20191;-61
2023/01/18 02:56:14;;;;;;;96.17;31.13;;;;;;;4.73;100.00;99547.88;2098863;28;20202;-62
2023/01/18 02:57:17;;;;;;;52.42;27.45;;;;;;;4.86;100.00;99562.53;2104654;28;20233;-62
2023/01/18 02:58:26;;;;;;;38.88;27.77;;;;;;;4.90;100.00;99557.75;2104235;28;20243;-62
2023/01/18 02:59:38;;;;;;;51.25;28.33;;;;;;;3.92;100.00;99409.38;2104722;28;20191;-62
2023/01/18 03:00:43;;;;;;;59.33;29.65;;;;;;;4.91;100.00;99565.56;2101778;28;20783;-62
2023/01/18 03:01:56;;;;;;;97.40;32.28;;;;;;;4.87;100.00;99572.31;2104512;28;20195;-61
2023/01/18 03:02:57;;;;;;;82.97;28.50;;;;;;;4.74;100.00;99550.19;2104458;28;20198;-62
2023/01/18 03:04:04;;;;;;;100.70;30.85;;;;;;;4.77;100.00;99565.81;2104467;28;20209;-62
2023/01/18 03:05:08;;;;;;;61.20;28.20;;;;;;;4.79;100.00;99570.88;2105094;28;20262;-62
2023/01/18 03:06:09;;;;;;;92.78;29.73;;;;;;;4.74;100.00;99585.09;2103365;28;21431;-62
2023/01/18 03:07:14;;;;;;;37.63;27.17;;;;;;;4.75;100.00;99581.94;2104668;28;20194;-61
2023/01/18 03:08:17;;;;;;;45.80;27.73;;;;;;;3.88;100.00;99449.78;2104124;28;20172;-62
2023/01/18 03:09:20;;;;;;;111.43;31.38;;;;;;;4.73;100.00;99581.56;2104452;28;20262;-62
2023/01/18 03:10:24;;;;;;;116.38;32.70;;;;;;;3.84;100.00;99459.25;2097084;28;20262;-61
2023/01/18 03:11:27;;;;;;;81.43;30.77;;;;;;;4.64;100.00;99584.09;2097625;28;20194;-62
2023/01/18 03:12:46;;;;;;;34.25;26.10;;;;;;;4.67;100.00;99580.50;2095701;28;20195;-62
2023/01/18 03:14:00;;;;;;;41.15;26.10;;;;;;;4.70;100.00;99587.91;2098597;28;20164;-61
2023/01/18 03:15:11;;;;;;;45.97;27.13;;;;;;;4.68;100.00;99575.78;2102024;28;20178;-62
2023/01/18 03:16:21;;;;;;;60.25;27.80;;;;;;;4.17;100.00;99510.41;2104718;28;20155;-62
2023/01/18 03:17:30;;;;;;;55.28;26.38;;;;;;;4.52;100.00;99578.41;2103972;28;20240;-61
2023/01/18 03:20:41;;;;;;;46.88;25.40;;;;;;;4.01;100.00;99497.31;2096584;28;20270;-62
2023/01/18 03:21:47;;;;;;;75.53;27.73;;;;;;;3.82;100.00;99469.84;2096213;28;20227;-61
2023/01/18 03:24:29;;;;;;;34.15;25.35;;;;;;;4.13;100.00;99510.47;2097735;28;20188;-61
2023/01/18 03:25:36;;;;;;;33.13;24.88;;;;;;;4.28;100.00;99528.25;2104733;28;20179;-61
2023/01/18 03:26:42;;;;;;;59.97;27.60;;;;;;;4.63;100.00;99590.78;2104497;28;20206;-62
2023/01/18 03:34:48;;;;;;;100.53;29.50;;;;;;;3.59;100.00;99467.81;2101471;28;20233;-61
2023/01/18 03:35:51;;;;;;;69.15;29.65;;;;;;;4.05;100.00;99530.19;2095863;28;20646;-62
2023/01/18 03:36:56;;;;;;;159.45;35.50;;;;;;;4.32;100.00;99564.59;2102253;28;20297;-62
2023/01/18 03:37:58;;;;;;;130.55;33.88;;;;;;;4.11;100.00;99562.19;2103221;28;20187;-62
2023/01/18 03:39:06;;;;;;;149.32;36.38;;;;;;;3.52;100.00;99489.84;2100733;28;20733;-61
2023/01/18 03:40:09;;;;;;;132.13;34.60;;;;;;;4.15;100.00;99557.44;2097295;28;20657;-61
2023/01/18 03:41:12;;;;;;;113.45;26.75;;;;;;;4.18;100.00;99553.06;2096811;28;20332;-61
2023/01/18 03:42:28;;;;;;;52.00;27.98;;;;;;;3.77;100.00;99512.19;2096705;28;20211;-61
2023/01/18 03:43:35;;;;;;;61.17;28.95;;;;;;;4.11;100.00;99569.66;2104714;28;20207;-61
2023/01/18 03:44:49;;;;;;;40.83;28.50;;;;;;;4.21;100.00;99568.72;2098515;28;20166;-61
2023/01/18 03:45:53;;;;;;;60.90;30.88;;;;;;;3.91;100.00;99522.91;2106672;28;20173;-61
2023/01/18 03:46:55;;;;;;;55.83;29.95;;;;;;;4.08;100.00;99559.50;2097802;28;20699;-62
2023/01/18 03:47:55;;;;;;;74.03;30.40;;;;;;;4.10;100.00;99566.13;2096198;28;20191;-62
2023/01/18 03:48:56;;;;;;;100.90;30.43;;;;;;;3.64;100.00;99500.22;2099767;28;20198;-62
2023/01/18 03:49:57;;;;;;;60.10;31.17;;;;;;;3.64;100.00;99502.97;2100361;28;20191;-61
2023/01/18 03:51:16;;;;;;;46.90;28.63;;;;;;;4.16;100.00;99574.66;2105643;28;20172;-62
2023/01/18 03:52:39;;;;;;;42.60;27.27;;;;;;;4.18;100.00;99586.78;2101890;28;20199;-62
2023/01/18 03:53:49;;;;;;;28.67;25.17;;;;;;;4.27;100.00;99589.75;2101471;28;20209;-61
2023/01/18 03:55:11;;;;;;;30.08;25.17;;;;;;;4.21;100.00;99576.94;2105340;28;20235;-61
2023/01/18 03:56:28;;;;;;;28.88;25.67;;;;;;;4.29;100.00;99576.41;2105193;28;20194;-62
2023/01/18 03:57:32;;;;;;;30.48;25.30;;;;;;;4.36;100.00;99573.56;2099166;28;20229;-61
2023/01/18 03:58:35;;;;;;;26.85;23.73;;;;;;;4.41;100.00;99564.09;2101442;28;20621;-62
2023/01/18 03:59:37;;;;;;;30.67;26.40;;;;;;;3.49;100.00;99435.88;2105056;28;20664;-62
2023/01/18 04:00:39;;;;;;;28.20;24.50;;;;;;;4.46;100.00;99556.16;2103505;28;20795;-62
2023/01/18 04:01:40;;;;;;;26.88;23.75;;;;;;;4.50;100.00;99564.31;2098227;28;20683;-61
2023/01/18 04:02:43;;;;;;;33.30;23.80;;;;;;;4.51;100.00;99568.63;2097045;28;20198;-61
2023/01/18 04:03:43;;;;;;;32.88;26.30;;;;;;;4.50;100.00;99570.59;2103180;28;20195;-62
2023/01/18 04:04:43;;;;;;;29.23;25.00;;;;;;;4.50;100.00;99564.31;2104002;28;20247;-61
2023/01/18 04:05:44;;;;;;;38.33;27.37;;;;;;;4.54;100.00;99562.28;2102158;28;20203;-61
2023/01/18 04:06:44;;;;;;;29.80;24.47;;;;;;;3.42;100.00;99381.22;2099934;28;20190;-62
2023/01/18 04:07:45;;;;;;;40.73;24.77;;;;;;;4.67;100.00;99577.75;2105505;28;20228;-62
2023/01/18 04:08:45;;;;;;;37.43;25.00;;;;;;;4.73;100.00;99587.03;2106638;28;20186;-62
2023/01/18 04:09:46;;;;;;;37.13;25.03;;;;;;;4.77;100.00;99576.78;2105742;28;20619;-61
2023/01/18 04:10:46;;;;;;;298.27;35.57;;;;;;;4.76;100.00;99566.22;2105781;28;20195;-61
2023/01/18 04:11:47;;;;;;;118.30;29.77;;;;;;;4.79;100.00;99568.94;2105547;28;20664;-61
2023/01/18 04:12:47;;;;;;;38.97;26.50;;;;;;;4.87;100.00;99562.09;2105241;28;20195;-62
2023/01/18 04:13:47;;;;;;;54.90;27.73;;;;;;;4.85;100.00;99552.75;2096489;28;20302;-61
2023/01/18 04:14:48;;;;;;;79.73;27.40;;;;;;;4.18;100.00;99435.19;2096953;28;20666;-62
2023/01/18 04:15:48;;;;;;;38.27;24.73;;;;;;;4.55;100.00;99498.78;2105674;28;20176;-62
2023/01/18 04:16:49;;;;;;;32.67;25.47;;;;;;;4.95;100.00;99563.53;2106568;28;20178;-61
2023/01/18 04:17:52;;;;;;;70.63;27.00;;;;;;;4.90;100.00;99553.03;2105244;28;20207;-61
2023/01/18 04:18:52;;;;;;;63.53;26.63;;;;;;;4.53;100.00;99503.94;2105851;28;20191;-61
2023/01/18 04:19:53;;;;;;;35.13;25.20;;;;;;;4.65;100.00;99536.25;2105520;28;20190;-61
2023/01/18 04:20:55;;;;;;;57.47;25.90;;;;;;;5.07;100.00;99584.13;2101159;28;20286;-61
2023/01/18 04:21:56;;;;;;;86.15;27.33;;;;;;;5.06;100.00;99577.06;2100293;28;20672;-61
2023/01/18 04:22:57;;;;;;;62.00;27.77;;;;;;;4.87;100.00;99586.06;2102568;28;20579;-63
2023/01/18 04:23:57;;;;;;;63.80;29.00;;;;;;;4.87;100.00;99564.84;2096528;28;20176;-62
2023/01/18 04:24:58;;;;;;;38.87;26.70;;;;;;;5.07;100.00;99582.13;2106579;28;20205;-63
2023/01/18 04:25:58;;;;;;;87.20;29.10;;;;;;;5.05;100.00;99576.31;2097654;28;20318;-61
2023/01/18 04:26:59;;;;;;;142.60;29.37;;;;;;;4.90;100.00;99555.78;2102146;28;20187;-62
2023/01/18 04:27:59;;;;;;;104.47;30.10;;;;;;;4.81;100.00;99552.81;2105030;28;20279;-61
2023/01/18 04:29:00;;;;;;;43.47;26.23;;;;;;;4.77;100.00;99543.84;2104680;28;20172;-61
2023/01/18 04:30:01;;;;;;;40.67;26.25;;;;;;;4.88;100.00;99573.88;2105117;28;20745;-62
2023/01/18 04:31:01;;;;;;;46.87;26.60;;;;;;;4.30;100.00;99465.53;2106150;28;20590;-61
2023/01/18 04:32:04;;;;;;;60.57;28.03;;;;;;;5.00;100.00;99565.81;2104135;28;20226;-61
2023/01/18 04:33:04;;;;;;;39.45;25.63;;;;;;;5.07;100.00;99576.66;2099831;28;20202;-62
2023/01/18 04:34:05;;;;;;;34.77;27.00;;;;;;;5.18;100.00;99582.72;2100231;28;20190;-61
2023/01/18 04:35:05;;;;;;;44.50;26.80;;;;;;;5.20;100.00;99576.81;2104930;28;20199;-62
2023/01/18 04:36:07;;;;;;;60.30;27.03;;;;;;;5.21;100.00;99575.59;2104929;28;20801;-61
2023/01/18 04:37:07;;;;;;;43.33;25.92;;;;;;;4.81;100.00;99506.16;2097604;28;20636;-61
2023/01/18 04:38:08;;;;;;;88.50;27.43;;;;;;;5.10;100.00;99550.31;2102478;28;20216;-62
2023/01/18 04:39:12;;;;;;;34.60;23.80;;;;;;;5.22;100.00;99571.66;2099583;28;20196;-61
2023/01/18 04:40:12;;;;;;;50.28;27.88;;;;;;;5.17;100.00;99552.91;2100042;28;20736;-62
2023/01/18 04:41:13;;;;;;;53.30;26.60;;;;;;;5.00;100.00;99541.09;2104904;28;20184;-61
2023/01/18 04:42:13;;;;;;;34.77;27.37;;;;;;;5.14;100.00;99568.28;2104143;28;20190;-62
2023/01/18 04:43:14;;;;;;;42.23;26.13;;;;;;;5.18;100.00;99579.22;2104917;28;20628;-63
2023/01/18 04:44:15;;;;;;;49.47;26.53;;;;;;;5.17;100.00;99575.69;2105594;28;20192;-61
2023/01/18 04:45:17;;;;;;;44.50;26.77;;;;;;;4.11;100.00;99411.41;2105491;28;20195;-63
2023/01/18 04:46:17;;;;;;;54.20;28.52;;;;;;;4.93;100.00;99559.66;2105405;28;20202;-61
2023/01/18 04:47:18;;;;;;;69.50;29.20;;;;;;;4.86;100.00;99554.28;2105597;28;20192;-61
2023/01/18 04:48:18;;;;;;;42.60;27.70;;;;;;;4.80;100.00;99539.50;2095881;28;20207;-61
2023/01/18 04:49:18;;;;;;;33.20;26.43;;;;;;;4.96;100.00;99561.56;2096820;28;20611;-61
2023/01/18 04:50:19;;;;;;;95.20;32.70;;;;;;;4.95;100.00;99582.75;2103301;28;20228;-61
2023/01/18 04:51:20;;;;;;;63.77;29.87;;;;;;;4.97;100.00;99563.13;2104944;28;20220;-62
2023/01/18 04:52:20;;;;;;;46.47;27.83;;;;;;;4.99;100.00;99578.00;2104840;28;20195;-61
2023/01/18 04:53:21;;;;;;;39.67;26.60;;;;;;;4.91;100.00;99586.75;2105538;28;20205;-61
2023/01/18 04:54:21;;;;;;;44.17;26.57;;;;;;;5.00;100.00;99568.56;2105512;28;20183;-61
2023/01/18 04:55:22;;;;;;;73.60;28.03;;;;;;;4.73;100.00;99543.13;2105580;28;20202;-62
2023/01/18 04:56:22;;;;;;;52.67;27.73;;;;;;;4.73;100.00;99554.13;2105135;28;20194;-62
2023/01/18 04:57:23;;;;;;;52.27;27.93;;;;;;;4.72;100.00;99560.81;2105361;28;20251;-61
2023/01/18 04:58:23;;;;;;;30.20;25.03;;;;;;;4.80;100.00;99584.19;2104234;28;20612;-61
2023/01/18 04:59:23;;;;;;;35.60;26.37;;;;;;;4.83;100.00;99580.59;2099635;28;20190;-62
2023/01/18 05:00:24;;;;;;;45.03;27.40;;;;;;;4.86;100.00;99566.06;2099740;28;20644;-61
2023/01/18 05:01:24;;;;;;;46.13;27.70;;;;;;;4.72;100.00;99549.81;2102526;28;20680;-61
2023/01/18 05:02:25;;;;;;;61.43;27.47;;;;;;;4.33;100.00;99491.34;2101046;28;20191;-61
2023/01/18 05:03:26;;;;;;;40.80;26.40;;;;;;;4.75;100.00;99551.75;2103369;28;20199;-61
2023/01/18 05:04:26;;;;;;;41.33;27.50;;;;;;;4.81;100.00;99557.50;2103738;28;20574;-61
2023/01/18 05:05:26;;;;;;;96.97;29.37;;;;;;;4.83;100.00;99558.66;2105044;28;20187;-61
2023/01/18 05:06:27;;;;;;;52.97;27.13;;;;;;;4.87;100.00;99553.13;2103842;28;20190;-62
2023/01/18 05:07:29;;;;;;;98.37;27.53;;;;;;;4.88;100.00;99571.13;2102520;28;20672;-61
2023/01/18 05:08:30;;;;;;;37.78;27.20;;;;;;;4.99;100.00;99574.47;2103206;28;20274;-62
2023/01/18 05:09:30;;;;;;;32.90;26.70;;;;;;;4.35;100.00;99492.47;2103234;28;20250;-60
2023/01/18 05:10:32;;;;;;;36.10;26.63;;;;;;;5.10;100.00;99588.75;2103208;28;20217;-59
2023/01/18 05:11:32;;;;;;;62.17;28.27;;;;;;;5.05;100.00;99592.78;2104515;28;20186;-60
2023/01/18 05:12:33;;;;;;;128.23;30.33;;;;;;;4.70;100.00;99589.84;2104166;28;20232;-62
2023/01/18 05:13:33;;;;;;;123.93;30.77;;;;;;;4.53;100.00;99582.69;2103603;28;20192;-62
2023/01/18 05:14:34;;;;;;;114.67;30.37;;;;;;;4.41;100.00;99592.28;2103288;28;20696;-63
2023/01/18 05:15:34;;;;;;;133.93;31.37;;;;;;;4.52;100.00;99597.63;2103180;28;20285;-62
2023/01/18 05:16:35;;;;;;;59.40;30.27;;;;;;;4.57;100.00;99592.41;2103159;28;20718;-61
2023/01/18 05:17:35;;;;;;;54.77;30.00;;;;;;;4.44;100.00;99566.78;2105042;28;20203;-61
2023/01/18 05:18:36;;;;;;;55.07;29.23;;;;;;;4.64;100.00;99589.56;2103129;28;20320;-61
2023/01/18 05:19:37;;;;;;;72.93;31.73;;;;;;;4.67;100.00;99599.69;2102950;28;20228;-61
2023/01/18 05:20:38;;;;;;;64.35;33.78;;;;;;;4.73;100.00;99605.50;2103030;28;20242;-61
2023/01/18 05:21:38;;;;;;;51.73;29.10;;;;;;;4.74;100.00;99615.28;2101256;28;20271;-61
2023/01/18 05:22:39;;;;;;;49.53;29.00;;;;;;;4.73;100.00;99616.47;2102963;28;20181;-62
2023/01/18 05:23:40;;;;;;;41.40;27.20;;;;;;;4.69;100.00;99608.31;2105255;28;20426;-62
2023/01/18 05:24:40;;;;;;;63.00;28.60;;;;;;;4.81;100.00;99624.16;2103511;28;20560;-62
2023/01/18 05:25:40;;;;;;;53.53;27.77;;;;;;;4.83;100.00;99626.50;2103032;28;20274;-62
2023/01/18 05:26:41;;;;;;;49.27;27.97;;;;;;;4.86;100.00;99634.69;2103025;28;20194;-61
2023/01/18 05:27:41;;;;;;;59.27;28.23;;;;;;;4.87;100.00;99619.75;2102391;28;20217;-62